13VA weather

7th Division State Police Headquarters Heliport
Fairfax, Virginia, United States

Public forecast

Using degrees Fahrenheit for public forecast. Weather courtesy of forecast.io.

Closest aviation weather report (METAR) to 7th Division State Police Headquarters Heliport

Closest report is Davison Army Air Field, 8.2 nm (15.2 km) SE. Retrieved 2020/06/01 17:56 UTC (58 minutes ago):

KDAA 011756Z AUTO 00000KT 10SM CLR 22/01 A3024 RMK AO2 SLP243 T02180014 10224 20156 57025 TSNO

Closest aviation forecast (TAF) to 7th Division State Police Headquarters Heliport

Closest forecast is Davison Army Air Field, 8.2 nm (15.2 km) SE. Retrieved 2020/06/01 17:06 UTC (2 hours ago):

TAF TAF KDAA 011700Z 0117/0223 35006KT 9999 FEW250 QNH2990INS TX24/0217Z TN12/0208Z